sensor_id;sensor_type;location;lat;lon;timestamp;P1;durP1;ratioP1;P2;durP2;ratioP2
15667;SDS011;7934;48.710;9.024;2023-02-23T00:00:51;21.63;;;14.13;;
15667;SDS011;7934;48.710;9.024;2023-02-23T00:03:20;21.27;;;14.00;;
15667;SDS011;7934;48.710;9.024;2023-02-23T00:05:47;22.70;;;12.47;;
15667;SDS011;7934;48.710;9.024;2023-02-23T00:08:14;20.57;;;13.03;;
15667;SDS011;7934;48.710;9.024;2023-02-23T00:10:42;18.23;;;11.80;;
15667;SDS011;7934;48.710;9.024;2023-02-23T00:13:10;15.63;;;10.93;;
15667;SDS011;7934;48.710;9.024;2023-02-23T00:15:37;19.87;;;12.50;;
15667;SDS011;7934;48.710;9.024;2023-02-23T00:18:05;16.17;;;12.13;;
15667;SDS011;7934;48.710;9.024;2023-02-23T00:20:34;17.93;;;13.07;;
15667;SDS011;7934;48.710;9.024;2023-02-23T00:23:11;24.40;;;13.67;;
15667;SDS011;7934;48.710;9.024;2023-02-23T00:25:42;22.63;;;13.27;;
15667;SDS011;7934;48.710;9.024;2023-02-23T00:28:10;19.57;;;13.37;;
15667;SDS011;7934;48.710;9.024;2023-02-23T00:30:37;21.13;;;14.40;;
15667;SDS011;7934;48.710;9.024;2023-02-23T00:33:05;21.37;;;14.00;;
15667;SDS011;7934;48.710;9.024;2023-02-23T00:35:34;23.20;;;14.97;;
15667;SDS011;7934;48.710;9.024;2023-02-23T00:38:01;25.27;;;15.10;;
15667;SDS011;7934;48.710;9.024;2023-02-23T00:40:28;30.53;;;15.50;;
15667;SDS011;7934;48.710;9.024;2023-02-23T00:42:58;23.13;;;15.90;;
15667;SDS011;7934;48.710;9.024;2023-02-23T00:45:26;25.77;;;16.80;;
15667;SDS011;7934;48.710;9.024;2023-02-23T00:47:54;26.90;;;16.37;;
15667;SDS011;7934;48.710;9.024;2023-02-23T00:50:21;24.43;;;18.00;;
15667;SDS011;7934;48.710;9.024;2023-02-23T00:52:50;23.20;;;17.07;;
15667;SDS011;7934;48.710;9.024;2023-02-23T00:55:17;29.00;;;19.07;;
15667;SDS011;7934;48.710;9.024;2023-02-23T00:57:45;27.77;;;18.87;;
15667;SDS011;7934;48.710;9.024;2023-02-23T01:00:12;35.27;;;18.87;;
15667;SDS011;7934;48.710;9.024;2023-02-23T01:02:43;30.53;;;19.27;;
15667;SDS011;7934;48.710;9.024;2023-02-23T01:05:10;33.70;;;20.23;;
15667;SDS011;7934;48.710;9.024;2023-02-23T01:07:38;29.77;;;18.77;;
15667;SDS011;7934;48.710;9.024;2023-02-23T01:10:07;24.97;;;17.03;;
15667;SDS011;7934;48.710;9.024;2023-02-23T01:12:47;31.80;;;17.90;;
15667;SDS011;7934;48.710;9.024;2023-02-23T01:15:14;29.47;;;17.67;;
15667;SDS011;7934;48.710;9.024;2023-02-23T01:17:42;29.80;;;18.40;;
15667;SDS011;7934;48.710;9.024;2023-02-23T01:20:10;25.47;;;17.83;;
15667;SDS011;7934;48.710;9.024;2023-02-23T01:22:42;28.03;;;17.23;;
15667;SDS011;7934;48.710;9.024;2023-02-23T01:25:10;32.07;;;18.83;;
15667;SDS011;7934;48.710;9.024;2023-02-23T01:27:38;28.20;;;17.93;;
15667;SDS011;7934;48.710;9.024;2023-02-23T01:30:06;35.23;;;17.53;;
15667;SDS011;7934;48.710;9.024;2023-02-23T01:32:34;24.13;;;15.83;;
15667;SDS011;7934;48.710;9.024;2023-02-23T01:35:05;28.63;;;18.43;;
15667;SDS011;7934;48.710;9.024;2023-02-23T01:37:33;27.57;;;17.70;;
15667;SDS011;7934;48.710;9.024;2023-02-23T01:40:00;28.63;;;16.90;;
15667;SDS011;7934;48.710;9.024;2023-02-23T01:42:37;28.00;;;16.77;;
15667;SDS011;7934;48.710;9.024;2023-02-23T01:47:48;24.53;;;17.20;;
15667;SDS011;7934;48.710;9.024;2023-02-23T01:50:16;30.00;;;18.57;;
15667;SDS011;7934;48.710;9.024;2023-02-23T01:52:44;27.80;;;17.87;;
15667;SDS011;7934;48.710;9.024;2023-02-23T01:55:12;26.87;;;18.03;;
15667;SDS011;7934;48.710;9.024;2023-02-23T01:57:48;27.93;;;18.90;;
15667;SDS011;7934;48.710;9.024;2023-02-23T02:00:17;29.43;;;17.43;;
15667;SDS011;7934;48.710;9.024;2023-02-23T02:02:49;32.27;;;18.60;;
15667;SDS011;7934;48.710;9.024;2023-02-23T02:05:18;42.72;;;25.00;;
15667;SDS011;7934;48.710;9.024;2023-02-23T02:07:46;33.63;;;20.17;;
15667;SDS011;7934;48.710;9.024;2023-02-23T02:10:14;32.37;;;19.97;;
15667;SDS011;7934;48.710;9.024;2023-02-23T02:12:57;29.90;;;18.83;;
15667;SDS011;7934;48.710;9.024;2023-02-23T02:15:24;28.17;;;17.53;;
15667;SDS011;7934;48.710;9.024;2023-02-23T02:17:56;24.80;;;15.03;;
15667;SDS011;7934;48.710;9.024;2023-02-23T02:20:30;21.63;;;13.80;;
15667;SDS011;7934;48.710;9.024;2023-02-23T02:26:03;21.87;;;13.70;;
15667;SDS011;7934;48.710;9.024;2023-02-23T02:37:09;22.57;;;14.27;;
15667;SDS011;7934;48.710;9.024;2023-02-23T02:39:41;21.13;;;14.57;;
15667;SDS011;7934;48.710;9.024;2023-02-23T02:42:13;21.30;;;13.20;;
15667;SDS011;7934;48.710;9.024;2023-02-23T02:44:45;23.63;;;13.13;;
15667;SDS011;7934;48.710;9.024;2023-02-23T02:47:16;21.00;;;12.97;;
15667;SDS011;7934;48.710;9.024;2023-02-23T02:49:47;18.67;;;12.90;;
15667;SDS011;7934;48.710;9.024;2023-02-23T02:52:18;25.63;;;12.63;;
15667;SDS011;7934;48.710;9.024;2023-02-23T02:54:48;20.47;;;12.60;;
15667;SDS011;7934;48.710;9.024;2023-02-23T02:57:17;22.87;;;13.67;;
15667;SDS011;7934;48.710;9.024;2023-02-23T02:59:45;19.63;;;12.07;;
15667;SDS011;7934;48.710;9.024;2023-02-23T03:02:31;20.17;;;12.70;;
15667;SDS011;7934;48.710;9.024;2023-02-23T03:05:16;24.30;;;13.47;;
15667;SDS011;7934;48.710;9.024;2023-02-23T03:08:06;18.40;;;12.37;;
15667;SDS011;7934;48.710;9.024;2023-02-23T03:10:54;17.77;;;12.17;;
15667;SDS011;7934;48.710;9.024;2023-02-23T03:13:43;17.67;;;11.90;;
15667;SDS011;7934;48.710;9.024;2023-02-23T03:16:33;18.30;;;12.00;;
15667;SDS011;7934;48.710;9.024;2023-02-23T03:19:21;17.17;;;11.20;;
15667;SDS011;7934;48.710;9.024;2023-02-23T03:22:09;17.47;;;12.03;;
15667;SDS011;7934;48.710;9.024;2023-02-23T03:24:59;16.70;;;11.77;;
15667;SDS011;7934;48.710;9.024;2023-02-23T03:27:48;19.37;;;10.87;;
15667;SDS011;7934;48.710;9.024;2023-02-23T03:30:37;19.20;;;11.93;;
15667;SDS011;7934;48.710;9.024;2023-02-23T03:33:27;15.33;;;11.30;;
15667;SDS011;7934;48.710;9.024;2023-02-23T03:36:14;17.77;;;11.47;;
15667;SDS011;7934;48.710;9.024;2023-02-23T03:39:04;17.73;;;10.67;;
15667;SDS011;7934;48.710;9.024;2023-02-23T03:41:52;15.17;;;10.93;;
15667;SDS011;7934;48.710;9.024;2023-02-23T03:44:38;18.33;;;11.00;;
15667;SDS011;7934;48.710;9.024;2023-02-23T03:47:27;18.03;;;10.70;;
15667;SDS011;7934;48.710;9.024;2023-02-23T03:50:14;15.20;;;11.07;;
15667;SDS011;7934;48.710;9.024;2023-02-23T03:53:03;16.30;;;10.97;;
15667;SDS011;7934;48.710;9.024;2023-02-23T03:55:51;14.70;;;10.40;;
15667;SDS011;7934;48.710;9.024;2023-02-23T03:58:39;16.37;;;10.47;;
15667;SDS011;7934;48.710;9.024;2023-02-23T04:01:25;14.30;;;10.13;;
15667;SDS011;7934;48.710;9.024;2023-02-23T04:04:11;14.97;;;10.23;;
15667;SDS011;7934;48.710;9.024;2023-02-23T04:06:57;14.97;;;9.83;;
15667;SDS011;7934;48.710;9.024;2023-02-23T04:09:43;17.73;;;10.23;;
15667;SDS011;7934;48.710;9.024;2023-02-23T04:12:29;11.83;;;9.73;;
15667;SDS011;7934;48.710;9.024;2023-02-23T04:15:19;15.57;;;10.40;;
15667;SDS011;7934;48.710;9.024;2023-02-23T04:17:48;18.63;;;10.00;;
15667;SDS011;7934;48.710;9.024;2023-02-23T04:20:17;14.03;;;8.90;;
15667;SDS011;7934;48.710;9.024;2023-02-23T04:22:44;16.03;;;10.03;;
15667;SDS011;7934;48.710;9.024;2023-02-23T04:25:12;17.83;;;9.33;;
15667;SDS011;7934;48.710;9.024;2023-02-23T04:27:40;21.10;;;10.47;;
15667;SDS011;7934;48.710;9.024;2023-02-23T04:30:07;15.83;;;9.60;;
15667;SDS011;7934;48.710;9.024;2023-02-23T04:32:36;13.93;;;9.20;;
15667;SDS011;7934;48.710;9.024;2023-02-23T04:35:04;14.67;;;9.37;;
15667;SDS011;7934;48.710;9.024;2023-02-23T04:37:31;18.23;;;8.77;;
15667;SDS011;7934;48.710;9.024;2023-02-23T04:39:58;16.77;;;9.10;;
15667;SDS011;7934;48.710;9.024;2023-02-23T04:42:25;17.90;;;8.77;;
15667;SDS011;7934;48.710;9.024;2023-02-23T04:44:53;11.97;;;8.80;;
15667;SDS011;7934;48.710;9.024;2023-02-23T04:47:21;14.23;;;9.17;;
15667;SDS011;7934;48.710;9.024;2023-02-23T04:49:50;12.53;;;9.87;;
15667;SDS011;7934;48.710;9.024;2023-02-23T04:52:17;15.23;;;8.90;;
15667;SDS011;7934;48.710;9.024;2023-02-23T04:54:45;18.20;;;8.97;;
15667;SDS011;7934;48.710;9.024;2023-02-23T04:57:12;16.73;;;9.27;;
15667;SDS011;7934;48.710;9.024;2023-02-23T04:59:39;15.17;;;8.80;;
15667;SDS011;7934;48.710;9.024;2023-02-23T05:02:06;13.97;;;9.67;;
15667;SDS011;7934;48.710;9.024;2023-02-23T05:04:34;14.83;;;9.20;;
15667;SDS011;7934;48.710;9.024;2023-02-23T05:07:02;17.00;;;9.40;;
15667;SDS011;7934;48.710;9.024;2023-02-23T05:09:30;17.40;;;9.40;;
15667;SDS011;7934;48.710;9.024;2023-02-23T05:11:59;16.83;;;9.07;;
15667;SDS011;7934;48.710;9.024;2023-02-23T05:14:26;17.87;;;10.07;;
15667;SDS011;7934;48.710;9.024;2023-02-23T05:16:53;16.43;;;9.57;;
15667;SDS011;7934;48.710;9.024;2023-02-23T05:19:20;15.93;;;10.03;;
15667;SDS011;7934;48.710;9.024;2023-02-23T05:21:48;15.40;;;9.70;;
15667;SDS011;7934;48.710;9.024;2023-02-23T05:24:16;13.93;;;10.07;;
15667;SDS011;7934;48.710;9.024;2023-02-23T05:26:43;14.60;;;9.73;;
15667;SDS011;7934;48.710;9.024;2023-02-23T05:29:12;15.80;;;10.70;;
15667;SDS011;7934;48.710;9.024;2023-02-23T05:31:39;18.23;;;9.93;;
15667;SDS011;7934;48.710;9.024;2023-02-23T05:34:06;17.40;;;10.10;;
15667;SDS011;7934;48.710;9.024;2023-02-23T05:36:34;17.17;;;10.37;;
15667;SDS011;7934;48.710;9.024;2023-02-23T05:39:02;14.10;;;9.37;;
15667;SDS011;7934;48.710;9.024;2023-02-23T05:41:30;14.70;;;9.87;;
15667;SDS011;7934;48.710;9.024;2023-02-23T05:43:57;17.53;;;10.23;;
15667;SDS011;7934;48.710;9.024;2023-02-23T05:46:25;16.13;;;10.03;;
15667;SDS011;7934;48.710;9.024;2023-02-23T05:48:54;17.13;;;10.27;;
15667;SDS011;7934;48.710;9.024;2023-02-23T05:51:22;22.60;;;12.10;;
15667;SDS011;7934;48.710;9.024;2023-02-23T05:53:50;18.33;;;11.13;;
15667;SDS011;7934;48.710;9.024;2023-02-23T05:56:17;18.03;;;11.57;;
15667;SDS011;7934;48.710;9.024;2023-02-23T05:58:47;16.07;;;11.17;;
15667;SDS011;7934;48.710;9.024;2023-02-23T06:01:14;23.73;;;12.33;;
15667;SDS011;7934;48.710;9.024;2023-02-23T06:03:41;27.23;;;16.40;;
15667;SDS011;7934;48.710;9.024;2023-02-23T06:06:08;34.07;;;19.37;;
15667;SDS011;7934;48.710;9.024;2023-02-23T06:08:35;30.03;;;18.47;;
15667;SDS011;7934;48.710;9.024;2023-02-23T06:11:03;27.67;;;15.80;;
15667;SDS011;7934;48.710;9.024;2023-02-23T06:13:30;24.97;;;13.83;;
15667;SDS011;7934;48.710;9.024;2023-02-23T06:15:59;26.17;;;15.70;;
15667;SDS011;7934;48.710;9.024;2023-02-23T06:18:26;22.73;;;13.37;;
15667;SDS011;7934;48.710;9.024;2023-02-23T06:20:54;24.33;;;14.93;;
15667;SDS011;7934;48.710;9.024;2023-02-23T06:23:22;23.70;;;14.47;;
15667;SDS011;7934;48.710;9.024;2023-02-23T06:25:49;22.70;;;14.33;;
15667;SDS011;7934;48.710;9.024;2023-02-23T06:28:16;24.83;;;14.57;;
15667;SDS011;7934;48.710;9.024;2023-02-23T06:30:43;26.23;;;13.23;;
15667;SDS011;7934;48.710;9.024;2023-02-23T06:33:14;22.60;;;13.07;;
15667;SDS011;7934;48.710;9.024;2023-02-23T06:35:41;25.97;;;12.77;;
15667;SDS011;7934;48.710;9.024;2023-02-23T06:38:08;25.57;;;12.80;;
15667;SDS011;7934;48.710;9.024;2023-02-23T06:40:36;23.47;;;12.23;;
15667;SDS011;7934;48.710;9.024;2023-02-23T06:43:03;28.37;;;12.37;;
15667;SDS011;7934;48.710;9.024;2023-02-23T06:45:30;21.47;;;13.33;;
15667;SDS011;7934;48.710;9.024;2023-02-23T06:47:58;18.03;;;11.87;;
15667;SDS011;7934;48.710;9.024;2023-02-23T06:50:26;21.43;;;12.23;;
15667;SDS011;7934;48.710;9.024;2023-02-23T06:52:53;25.87;;;12.67;;
15667;SDS011;7934;48.710;9.024;2023-02-23T06:55:21;24.67;;;13.10;;
15667;SDS011;7934;48.710;9.024;2023-02-23T06:57:48;19.90;;;12.60;;
15667;SDS011;7934;48.710;9.024;2023-02-23T07:00:17;23.00;;;12.43;;
15667;SDS011;7934;48.710;9.024;2023-02-23T07:02:45;14.63;;;11.03;;
15667;SDS011;7934;48.710;9.024;2023-02-23T07:05:12;27.10;;;12.23;;
15667;SDS011;7934;48.710;9.024;2023-02-23T07:07:41;23.27;;;13.47;;
15667;SDS011;7934;48.710;9.024;2023-02-23T07:10:10;23.70;;;13.80;;
15667;SDS011;7934;48.710;9.024;2023-02-23T07:12:37;28.60;;;13.60;;
15667;SDS011;7934;48.710;9.024;2023-02-23T07:15:05;20.70;;;13.60;;
15667;SDS011;7934;48.710;9.024;2023-02-23T07:17:32;23.20;;;14.07;;
15667;SDS011;7934;48.710;9.024;2023-02-23T07:19:59;26.37;;;13.57;;
15667;SDS011;7934;48.710;9.024;2023-02-23T07:22:26;23.55;;;14.32;;
15667;SDS011;7934;48.710;9.024;2023-02-23T07:24:55;22.07;;;13.70;;
15667;SDS011;7934;48.710;9.024;2023-02-23T07:27:23;22.10;;;13.60;;
15667;SDS011;7934;48.710;9.024;2023-02-23T07:29:51;23.20;;;13.30;;
15667;SDS011;7934;48.710;9.024;2023-02-23T07:32:18;23.83;;;12.73;;
15667;SDS011;7934;48.710;9.024;2023-02-23T07:34:45;19.90;;;13.20;;
15667;SDS011;7934;48.710;9.024;2023-02-23T07:37:15;22.70;;;13.27;;
15667;SDS011;7934;48.710;9.024;2023-02-23T07:39:42;20.97;;;12.23;;
15667;SDS011;7934;48.710;9.024;2023-02-23T07:42:15;21.63;;;12.07;;
15667;SDS011;7934;48.710;9.024;2023-02-23T07:44:42;18.43;;;10.33;;
15667;SDS011;7934;48.710;9.024;2023-02-23T07:47:09;16.27;;;10.07;;
15667;SDS011;7934;48.710;9.024;2023-02-23T07:49:36;14.50;;;9.87;;
15667;SDS011;7934;48.710;9.024;2023-02-23T07:52:03;18.40;;;9.90;;
15667;SDS011;7934;48.710;9.024;2023-02-23T07:54:31;15.27;;;10.13;;
15667;SDS011;7934;48.710;9.024;2023-02-23T07:56:58;14.47;;;10.30;;
15667;SDS011;7934;48.710;9.024;2023-02-23T07:59:27;18.13;;;10.20;;
15667;SDS011;7934;48.710;9.024;2023-02-23T08:01:56;19.63;;;10.03;;
15667;SDS011;7934;48.710;9.024;2023-02-23T08:04:23;16.03;;;9.90;;
15667;SDS011;7934;48.710;9.024;2023-02-23T08:06:50;18.33;;;9.30;;
15667;SDS011;7934;48.710;9.024;2023-02-23T08:09:17;15.67;;;9.20;;
15667;SDS011;7934;48.710;9.024;2023-02-23T08:11:44;17.27;;;9.87;;
15667;SDS011;7934;48.710;9.024;2023-02-23T08:14:11;13.57;;;8.43;;
15667;SDS011;7934;48.710;9.024;2023-02-23T08:16:40;13.83;;;9.37;;
15667;SDS011;7934;48.710;9.024;2023-02-23T08:19:08;14.00;;;8.63;;
15667;SDS011;7934;48.710;9.024;2023-02-23T08:21:35;15.93;;;8.57;;
15667;SDS011;7934;48.710;9.024;2023-02-23T08:24:03;11.93;;;8.10;;
15667;SDS011;7934;48.710;9.024;2023-02-23T08:26:30;16.27;;;8.50;;
15667;SDS011;7934;48.710;9.024;2023-02-23T08:28:57;10.90;;;7.73;;
15667;SDS011;7934;48.710;9.024;2023-02-23T08:31:24;13.70;;;8.10;;
15667;SDS011;7934;48.710;9.024;2023-02-23T08:33:53;14.67;;;8.33;;
15667;SDS011;7934;48.710;9.024;2023-02-23T08:36:20;15.67;;;8.60;;
15667;SDS011;7934;48.710;9.024;2023-02-23T08:38:48;10.87;;;7.80;;
15667;SDS011;7934;48.710;9.024;2023-02-23T08:41:15;14.80;;;7.23;;
15667;SDS011;7934;48.710;9.024;2023-02-23T08:43:42;9.67;;;7.60;;
15667;SDS011;7934;48.710;9.024;2023-02-23T08:46:10;11.47;;;8.37;;
15667;SDS011;7934;48.710;9.024;2023-02-23T08:48:37;12.23;;;8.10;;
15667;SDS011;7934;48.710;9.024;2023-02-23T08:51:06;11.50;;;8.57;;
15667;SDS011;7934;48.710;9.024;2023-02-23T08:53:33;12.80;;;8.33;;
15667;SDS011;7934;48.710;9.024;2023-02-23T08:56:01;10.37;;;7.43;;
15667;SDS011;7934;48.710;9.024;2023-02-23T08:58:33;12.77;;;7.03;;
15667;SDS011;7934;48.710;9.024;2023-02-23T09:01:00;13.43;;;7.07;;
15667;SDS011;7934;48.710;9.024;2023-02-23T09:03:37;14.13;;;7.07;;
15667;SDS011;7934;48.710;9.024;2023-02-23T09:06:07;12.20;;;7.07;;
15667;SDS011;7934;48.710;9.024;2023-02-23T09:08:35;14.97;;;7.57;;
15667;SDS011;7934;48.710;9.024;2023-02-23T09:11:03;10.03;;;7.00;;
15667;SDS011;7934;48.710;9.024;2023-02-23T09:13:30;11.23;;;7.13;;
15667;SDS011;7934;48.710;9.024;2023-02-23T09:15:58;8.67;;;6.67;;
15667;SDS011;7934;48.710;9.024;2023-02-23T09:18:26;8.10;;;6.60;;
15667;SDS011;7934;48.710;9.024;2023-02-23T09:20:53;8.60;;;6.70;;
15667;SDS011;7934;48.710;9.024;2023-02-23T09:23:22;11.77;;;7.33;;
15667;SDS011;7934;48.710;9.024;2023-02-23T09:25:52;10.60;;;7.07;;
15667;SDS011;7934;48.710;9.024;2023-02-23T09:28:19;11.87;;;6.67;;
15667;SDS011;7934;48.710;9.024;2023-02-23T09:30:46;10.87;;;6.87;;
15667;SDS011;7934;48.710;9.024;2023-02-23T09:33:13;10.30;;;6.53;;
15667;SDS011;7934;48.710;9.024;2023-02-23T09:35:41;8.77;;;6.97;;
15667;SDS011;7934;48.710;9.024;2023-02-23T09:38:08;9.57;;;6.57;;
15667;SDS011;7934;48.710;9.024;2023-02-23T09:40:42;12.07;;;5.57;;
15667;SDS011;7934;48.710;9.024;2023-02-23T09:43:12;9.37;;;6.00;;
15667;SDS011;7934;48.710;9.024;2023-02-23T09:45:41;8.43;;;5.50;;
15667;SDS011;7934;48.710;9.024;2023-02-23T09:48:11;8.83;;;5.53;;
15667;SDS011;7934;48.710;9.024;2023-02-23T09:50:41;8.57;;;5.63;;
15667;SDS011;7934;48.710;9.024;2023-02-23T09:53:14;10.17;;;5.60;;
15667;SDS011;7934;48.710;9.024;2023-02-23T09:55:44;11.17;;;5.63;;
15667;SDS011;7934;48.710;9.024;2023-02-23T09:58:15;10.73;;;4.37;;
15667;SDS011;7934;48.710;9.024;2023-02-23T10:00:44;11.57;;;4.63;;
15667;SDS011;7934;48.710;9.024;2023-02-23T10:03:16;8.07;;;4.47;;
15667;SDS011;7934;48.710;9.024;2023-02-23T10:05:46;9.37;;;5.20;;
15667;SDS011;7934;48.710;9.024;2023-02-23T10:08:18;7.00;;;4.70;;
15667;SDS011;7934;48.710;9.024;2023-02-23T10:10:49;8.63;;;4.80;;
15667;SDS011;7934;48.710;9.024;2023-02-23T10:13:21;8.27;;;4.10;;
15667;SDS011;7934;48.710;9.024;2023-02-23T10:15:52;5.33;;;3.73;;
15667;SDS011;7934;48.710;9.024;2023-02-23T10:18:23;8.83;;;4.07;;
15667;SDS011;7934;48.710;9.024;2023-02-23T10:20:56;8.30;;;4.13;;
15667;SDS011;7934;48.710;9.024;2023-02-23T10:23:26;5.37;;;3.13;;
15667;SDS011;7934;48.710;9.024;2023-02-23T10:25:56;3.90;;;3.00;;
15667;SDS011;7934;48.710;9.024;2023-02-23T10:28:25;8.13;;;3.80;;
15667;SDS011;7934;48.710;9.024;2023-02-23T10:30:59;7.57;;;3.30;;
15667;SDS011;7934;48.710;9.024;2023-02-23T10:33:31;8.50;;;3.37;;
15667;SDS011;7934;48.710;9.024;2023-02-23T10:36:01;9.20;;;3.33;;
15667;SDS011;7934;48.710;9.024;2023-02-23T10:38:36;6.20;;;2.70;;
15667;SDS011;7934;48.710;9.024;2023-02-23T10:41:05;8.37;;;3.30;;
15667;SDS011;7934;48.710;9.024;2023-02-23T10:43:32;4.53;;;3.43;;
15667;SDS011;7934;48.710;9.024;2023-02-23T10:45:59;5.37;;;3.17;;
15667;SDS011;7934;48.710;9.024;2023-02-23T10:48:32;7.07;;;2.80;;
15667;SDS011;7934;48.710;9.024;2023-02-23T10:51:00;5.80;;;2.77;;
15667;SDS011;7934;48.710;9.024;2023-02-23T10:53:30;10.80;;;3.10;;
15667;SDS011;7934;48.710;9.024;2023-02-23T10:56:02;9.20;;;3.03;;
15667;SDS011;7934;48.710;9.024;2023-02-23T10:58:40;6.40;;;3.37;;
15667;SDS011;7934;48.710;9.024;2023-02-23T11:01:08;5.63;;;2.90;;
15667;SDS011;7934;48.710;9.024;2023-02-23T11:03:36;17.80;;;3.30;;
15667;SDS011;7934;48.710;9.024;2023-02-23T11:06:04;10.47;;;2.97;;
15667;SDS011;7934;48.710;9.024;2023-02-23T11:08:32;9.13;;;2.37;;
15667;SDS011;7934;48.710;9.024;2023-02-23T11:11:01;2.57;;;2.10;;
15667;SDS011;7934;48.710;9.024;2023-02-23T11:13:38;4.27;;;2.40;;
15667;SDS011;7934;48.710;9.024;2023-02-23T11:16:09;9.40;;;2.40;;
15667;SDS011;7934;48.710;9.024;2023-02-23T11:18:37;8.50;;;2.70;;
15667;SDS011;7934;48.710;9.024;2023-02-23T11:21:08;7.83;;;2.60;;
15667;SDS011;7934;48.710;9.024;2023-02-23T11:23:36;5.53;;;2.80;;
15667;SDS011;7934;48.710;9.024;2023-02-23T11:26:05;8.40;;;2.60;;
15667;SDS011;7934;48.710;9.024;2023-02-23T11:28:47;3.23;;;2.40;;
15667;SDS011;7934;48.710;9.024;2023-02-23T11:31:19;5.03;;;2.97;;
15667;SDS011;7934;48.710;9.024;2023-02-23T11:33:47;6.10;;;2.73;;
15667;SDS011;7934;48.710;9.024;2023-02-23T11:36:16;5.27;;;3.50;;
15667;SDS011;7934;48.710;9.024;2023-02-23T11:38:46;10.87;;;3.63;;
15667;SDS011;7934;48.710;9.024;2023-02-23T11:41:17;4.73;;;3.23;;
15667;SDS011;7934;48.710;9.024;2023-02-23T11:43:46;5.30;;;3.07;;
15667;SDS011;7934;48.710;9.024;2023-02-23T11:46:15;7.63;;;3.30;;
15667;SDS011;7934;48.710;9.024;2023-02-23T11:48:46;8.73;;;3.63;;
15667;SDS011;7934;48.710;9.024;2023-02-23T11:51:21;8.53;;;3.57;;
15667;SDS011;7934;48.710;9.024;2023-02-23T11:53:52;13.47;;;4.73;;
15667;SDS011;7934;48.710;9.024;2023-02-23T11:56:20;6.20;;;3.43;;
15667;SDS011;7934;48.710;9.024;2023-02-23T11:58:50;4.90;;;3.83;;
15667;SDS011;7934;48.710;9.024;2023-02-23T12:01:19;6.73;;;3.60;;
15667;SDS011;7934;48.710;9.024;2023-02-23T12:03:51;6.90;;;4.23;;
15667;SDS011;7934;48.710;9.024;2023-02-23T12:06:29;10.50;;;3.67;;
15667;SDS011;7934;48.710;9.024;2023-02-23T12:08:58;9.53;;;4.27;;
15667;SDS011;7934;48.710;9.024;2023-02-23T12:11:28;3.67;;;3.30;;
15667;SDS011;7934;48.710;9.024;2023-02-23T12:13:58;25.47;;;4.70;;
15667;SDS011;7934;48.710;9.024;2023-02-23T12:16:28;8.67;;;3.37;;
15667;SDS011;7934;48.710;9.024;2023-02-23T12:19:03;5.13;;;2.83;;
15667;SDS011;7934;48.710;9.024;2023-02-23T12:21:33;7.43;;;3.40;;
15667;SDS011;7934;48.710;9.024;2023-02-23T12:24:04;7.13;;;2.93;;
15667;SDS011;7934;48.710;9.024;2023-02-23T12:26:37;11.43;;;4.07;;
15667;SDS011;7934;48.710;9.024;2023-02-23T12:29:09;10.10;;;2.93;;
15667;SDS011;7934;48.710;9.024;2023-02-23T12:31:44;6.23;;;3.83;;
15667;SDS011;7934;48.710;9.024;2023-02-23T12:34:16;6.13;;;3.30;;
15667;SDS011;7934;48.710;9.024;2023-02-23T12:36:44;6.43;;;3.43;;
15667;SDS011;7934;48.710;9.024;2023-02-23T12:39:14;7.30;;;3.83;;
15667;SDS011;7934;48.710;9.024;2023-02-23T12:41:43;8.43;;;3.93;;
15667;SDS011;7934;48.710;9.024;2023-02-23T12:44:13;6.83;;;3.47;;
15667;SDS011;7934;48.710;9.024;2023-02-23T12:46:44;4.30;;;3.07;;
15667;SDS011;7934;48.710;9.024;2023-02-23T12:49:17;3.97;;;3.10;;
15667;SDS011;7934;48.710;9.024;2023-02-23T12:51:48;8.17;;;3.80;;
15667;SDS011;7934;48.710;9.024;2023-02-23T12:54:16;8.77;;;3.80;;
15667;SDS011;7934;48.710;9.024;2023-02-23T12:56:53;12.85;;;3.80;;
15667;SDS011;7934;48.710;9.024;2023-02-23T12:59:27;6.40;;;3.80;;
15667;SDS011;7934;48.710;9.024;2023-02-23T13:02:00;6.83;;;3.77;;
15667;SDS011;7934;48.710;9.024;2023-02-23T13:04:34;12.60;;;4.03;;
15667;SDS011;7934;48.710;9.024;2023-02-23T13:07:06;4.77;;;3.33;;
15667;SDS011;7934;48.710;9.024;2023-02-23T13:09:42;10.37;;;3.77;;
15667;SDS011;7934;48.710;9.024;2023-02-23T13:12:13;8.33;;;3.73;;
15667;SDS011;7934;48.710;9.024;2023-02-23T13:14:44;5.97;;;3.53;;
15667;SDS011;7934;48.710;9.024;2023-02-23T13:17:21;5.40;;;3.33;;
15667;SDS011;7934;48.710;9.024;2023-02-23T13:19:52;13.03;;;3.90;;
15667;SDS011;7934;48.710;9.024;2023-02-23T13:22:25;4.13;;;3.00;;
15667;SDS011;7934;48.710;9.024;2023-02-23T13:24:54;5.73;;;3.67;;
15667;SDS011;7934;48.710;9.024;2023-02-23T13:27:24;7.67;;;3.27;;
15667;SDS011;7934;48.710;9.024;2023-02-23T13:29:53;5.63;;;3.00;;
15667;SDS011;7934;48.710;9.024;2023-02-23T13:32:23;5.90;;;3.10;;
15667;SDS011;7934;48.710;9.024;2023-02-23T13:34:55;10.37;;;3.27;;
15667;SDS011;7934;48.710;9.024;2023-02-23T13:37:25;6.23;;;2.77;;
15667;SDS011;7934;48.710;9.024;2023-02-23T13:39:58;8.27;;;3.17;;
15667;SDS011;7934;48.710;9.024;2023-02-23T13:42:32;6.77;;;3.27;;
15667;SDS011;7934;48.710;9.024;2023-02-23T13:45:14;3.97;;;2.53;;
15667;SDS011;7934;48.710;9.024;2023-02-23T13:47:52;6.07;;;3.43;;
15667;SDS011;7934;48.710;9.024;2023-02-23T13:50:28;6.10;;;4.07;;
15667;SDS011;7934;48.710;9.024;2023-02-23T13:52:59;6.63;;;3.97;;
15667;SDS011;7934;48.710;9.024;2023-02-23T13:55:36;6.40;;;3.83;;
15667;SDS011;7934;48.710;9.024;2023-02-23T13:58:12;8.77;;;4.33;;
15667;SDS011;7934;48.710;9.024;2023-02-23T14:00:40;5.43;;;3.80;;
15667;SDS011;7934;48.710;9.024;2023-02-23T14:03:18;5.13;;;3.90;;
15667;SDS011;7934;48.710;9.024;2023-02-23T14:05:48;7.43;;;4.43;;
15667;SDS011;7934;48.710;9.024;2023-02-23T14:08:19;6.13;;;4.27;;
15667;SDS011;7934;48.710;9.024;2023-02-23T14:10:48;8.37;;;4.27;;
15667;SDS011;7934;48.710;9.024;2023-02-23T14:13:24;7.30;;;4.83;;
15667;SDS011;7934;48.710;9.024;2023-02-23T14:16:06;6.13;;;4.47;;
15667;SDS011;7934;48.710;9.024;2023-02-23T14:18:34;7.47;;;4.50;;
15667;SDS011;7934;48.710;9.024;2023-02-23T14:21:04;7.60;;;4.30;;
15667;SDS011;7934;48.710;9.024;2023-02-23T14:23:35;7.90;;;4.27;;
15667;SDS011;7934;48.710;9.024;2023-02-23T14:26:12;5.73;;;4.37;;
15667;SDS011;7934;48.710;9.024;2023-02-23T14:28:41;11.93;;;4.77;;
15667;SDS011;7934;48.710;9.024;2023-02-23T14:31:16;8.53;;;4.93;;
15667;SDS011;7934;48.710;9.024;2023-02-23T14:33:48;5.10;;;4.50;;
15667;SDS011;7934;48.710;9.024;2023-02-23T14:36:34;10.20;;;5.03;;
15667;SDS011;7934;48.710;9.024;2023-02-23T14:39:02;4.30;;;3.90;;
15667;SDS011;7934;48.710;9.024;2023-02-23T14:41:34;8.07;;;4.33;;
15667;SDS011;7934;48.710;9.024;2023-02-23T14:44:11;5.47;;;4.40;;
15667;SDS011;7934;48.710;9.024;2023-02-23T14:46:59;6.63;;;4.50;;
15667;SDS011;7934;48.710;9.024;2023-02-23T14:49:30;5.10;;;4.67;;
15667;SDS011;7934;48.710;9.024;2023-02-23T14:52:03;4.33;;;3.93;;
15667;SDS011;7934;48.710;9.024;2023-02-23T14:54:31;4.63;;;3.90;;
15667;SDS011;7934;48.710;9.024;2023-02-23T14:56:59;11.53;;;4.03;;
15667;SDS011;7934;48.710;9.024;2023-02-23T14:59:27;4.40;;;3.40;;
15667;SDS011;7934;48.710;9.024;2023-02-23T15:01:58;4.60;;;3.63;;
15667;SDS011;7934;48.710;9.024;2023-02-23T15:04:26;7.43;;;3.60;;
15667;SDS011;7934;48.710;9.024;2023-02-23T15:06:54;5.23;;;3.07;;
15667;SDS011;7934;48.710;9.024;2023-02-23T15:09:28;6.20;;;3.30;;
15667;SDS011;7934;48.710;9.024;2023-02-23T15:11:57;5.63;;;3.20;;
15667;SDS011;7934;48.710;9.024;2023-02-23T15:14:24;4.17;;;3.20;;
15667;SDS011;7934;48.710;9.024;2023-02-23T15:16:52;8.73;;;3.73;;
15667;SDS011;7934;48.710;9.024;2023-02-23T15:19:31;8.57;;;3.53;;
15667;SDS011;7934;48.710;9.024;2023-02-23T15:21:59;6.70;;;3.60;;